Time;durP1;ratioP1;P1;durP2;ratioP2;P2;SDS_P1;SDS_P2;PMS_P1;PMS_P2;Temp;Humidity;BMP_temperature;BMP_pressure;BME280_temperature;BME280_humidity;BME280_pressure;Samples;Min_cycle;Max_cycle;Signal;HPM_P1;HPM_P2
2021/12/14 00:02:16;;;;;;;18.23;13.90;;;;;;;;;;5115460;28;20039;-80
2021/12/14 00:04:43;;;;;;;16.10;13.20;;;;;;;;;;5097045;28;20049;-80
2021/12/14 00:07:12;;;;;;;16.00;12.90;;;;;;;;;;5097162;28;20044;-80
2021/12/14 00:09:40;;;;;;;16.95;13.07;;;;;;;;;;5115487;28;20438;-81
2021/12/14 00:17:07;;;;;;;18.02;13.20;;;;;;;;;;5115021;28;20043;-80
2021/12/14 00:19:33;;;;;;;16.95;13.77;;;;;;;;;;5096730;28;20376;-80
2021/12/14 00:22:06;;;;;;;18.40;13.07;;;;;;;;;;5114825;28;20051;-80
2021/12/14 00:24:33;;;;;;;16.50;13.13;;;;;;;;;;5115007;28;20487;-79
2021/12/14 00:27:04;;;;;;;18.55;13.30;;;;;;;;;;5096929;28;20476;-80
2021/12/14 00:29:30;;;;;;;;;;;;;;;;;;5115274;28;20082;-80
2021/12/14 00:31:58;;;;;;;18.13;12.88;;;;;;;;;;5114965;28;20289;-80
2021/12/14 00:37:34;;;;;;;19.33;12.73;;;;;;;;;;5079409;28;20111;-80
2021/12/14 00:40:02;;;;;;;16.42;12.63;;;;;;;;;;5114659;28;20043;-79
2021/12/14 00:42:28;;;;;;;18.23;13.90;;;;;;;;;;5114528;28;20050;-80
2021/12/14 00:44:54;;;;;;;16.60;13.23;;;;;;;;;;5114443;28;20039;-80
2021/12/14 00:47:20;;;;;;;16.10;13.07;;;;;;;;;;5114670;28;20043;-79
2021/12/14 00:49:47;;;;;;;16.05;12.90;;;;;;;;;;5114633;28;20052;-79
2021/12/14 00:52:13;;;;;;;17.63;12.95;;;;;;;;;;5079617;28;20050;-80
2021/12/14 00:54:39;;;;;;;16.25;13.45;;;;;;;;;;5114311;28;20039;-80
2021/12/14 00:57:06;;;;;;;16.90;13.57;;;;;;;;;;5114208;28;20085;-81
2021/12/14 00:59:33;;;;;;;18.25;13.60;;;;;;;;;;5096317;28;20048;-80
2021/12/14 01:02:01;;;;;;;20.52;14.18;;;;;;;;;;5096280;28;20047;-80
2021/12/14 01:04:29;;;;;;;19.17;14.20;;;;;;;;;;5096062;28;20058;-80
2021/12/14 01:06:56;;;;;;;17.67;13.93;;;;;;;;;;5095974;28;20068;-80
2021/12/14 01:09:32;;;;;;;18.65;14.00;;;;;;;;;;5114105;28;20039;-81
2021/12/14 01:12:04;;;;;;;18.77;14.15;;;;;;;;;;5113759;28;20101;-81
2021/12/14 01:14:39;;;;;;;18.30;15.02;;;;;;;;;;5096193;28;20055;-81
2021/12/14 01:17:11;;;;;;;18.92;15.18;;;;;;;;;;5096045;28;20051;-80
2021/12/14 01:19:38;;;;;;;17.65;14.15;;;;;;;;;;5114156;28;20062;-80
2021/12/14 01:27:35;;;;;;;21.50;16.15;;;;;;;;;;5113943;28;20050;-79
2021/12/14 01:30:23;;;;;;;22.70;15.45;;;;;;;;;;5080413;28;20063;-80
2021/12/14 01:32:50;;;;;;;19.75;16.15;;;;;;;;;;5113575;28;20050;-80
2021/12/14 01:35:19;;;;;;;20.60;16.35;;;;;;;;;;5113714;28;20036;-81
2021/12/14 01:37:59;;;;;;;20.48;15.73;;;;;;;;;;5113727;28;20412;-80
2021/12/14 01:43:11;;;;;;;22.23;17.45;;;;;;;;;;5113334;28;20083;-80
2021/12/14 01:45:37;;;;;;;24.95;17.85;;;;;;;;;;5113425;28;20126;-80
2021/12/14 01:48:03;;;;;;;21.48;17.20;;;;;;;;;;5113430;28;20035;-81
2021/12/14 01:50:32;;;;;;;23.27;17.55;;;;;;;;;;5095351;28;20050;-81
2021/12/14 01:52:58;;;;;;;21.67;17.08;;;;;;;;;;5113294;28;20055;-81
2021/12/14 01:55:26;;;;;;;23.08;17.70;;;;;;;;;;5113400;28;20036;-80
2021/12/14 01:57:56;;;;;;;24.80;17.88;;;;;;;;;;5113195;28;20039;-80
2021/12/14 02:00:27;;;;;;;22.85;18.33;;;;;;;;;;5095441;28;20040;-80
2021/12/14 02:02:54;;;;;;;21.40;17.92;;;;;;;;;;5095148;28;20426;-79
2021/12/14 02:05:20;;;;;;;21.55;18.42;;;;;;;;;;5113149;28;20043;-79
2021/12/14 02:07:46;;;;;;;21.98;17.65;;;;;;;;;;5095179;28;20096;-80
2021/12/14 02:10:17;;;;;;;23.77;18.67;;;;;;;;;;5112884;28;20437;-80
2021/12/14 02:12:44;;;;;;;22.08;17.08;;;;;;;;;;5112770;28;20489;-80
2021/12/14 02:15:16;;;;;;;24.77;18.70;;;;;;;;;;5113018;28;20036;-81
2021/12/14 02:17:43;;;;;;;24.92;19.70;;;;;;;;;;5113070;28;20039;-81
2021/12/14 02:20:10;;;;;;;24.40;18.33;;;;;;;;;;5112576;28;20110;-81
2021/12/14 02:22:37;;;;;;;25.95;18.88;;;;;;;;;;5094764;28;20044;-80
2021/12/14 02:25:04;;;;;;;23.30;18.98;;;;;;;;;;5112965;28;20190;-80
2021/12/14 02:27:34;;;;;;;25.08;18.50;;;;;;;;;;5113083;28;20043;-80
2021/12/14 02:30:03;;;;;;;22.95;18.65;;;;;;;;;;5112862;28;20064;-81
2021/12/14 02:32:29;;;;;;;25.17;18.40;;;;;;;;;;5094764;28;20054;-80
2021/12/14 02:35:01;;;;;;;23.50;18.25;;;;;;;;;;5112740;28;20118;-80
2021/12/14 02:37:40;;;;;;;24.27;18.50;;;;;;;;;;5094479;28;20381;-79
2021/12/14 02:40:17;;;;;;;25.42;18.42;;;;;;;;;;5112625;28;20054;-80
2021/12/14 02:42:43;;;;;;;25.10;18.75;;;;;;;;;;5112628;28;20101;-80
2021/12/14 02:45:09;;;;;;;22.27;18.30;;;;;;;;;;5112455;28;20043;-80
2021/12/14 02:47:35;;;;;;;24.50;18.95;;;;;;;;;;5094399;28;20055;-81
2021/12/14 02:50:03;;;;;;;24.08;18.33;;;;;;;;;;5112792;28;20361;-80
2021/12/14 02:52:35;;;;;;;23.75;19.52;;;;;;;;;;5112631;28;20045;-80
2021/12/14 02:55:19;;;;;;;26.33;19.40;;;;;;;;;;5112694;28;20040;-79
2021/12/14 02:57:47;;;;;;;24.70;18.23;;;;;;;;;;5094361;28;20579;-80
2021/12/14 03:00:18;;;;;;;23.65;18.38;;;;;;;;;;5112579;28;20046;-80
2021/12/14 03:02:44;;;;;;;24.40;19.05;;;;;;;;;;5112607;28;20039;-79
2021/12/14 03:05:20;;;;;;;24.38;18.92;;;;;;;;;;5112633;28;20104;-79
2021/12/14 03:07:57;;;;;;;26.73;19.67;;;;;;;;;;5112613;28;20043;-80
2021/12/14 03:10:36;;;;;;;25.38;19.40;;;;;;;;;;5094471;28;20059;-81
2021/12/14 03:13:04;;;;;;;25.92;19.95;;;;;;;;;;5112468;28;20509;-80
2021/12/14 03:15:34;;;;;;;25.30;19.77;;;;;;;;;;5112474;28;20044;-80
2021/12/14 03:18:02;;;;;;;26.02;20.65;;;;;;;;;;5112482;28;20075;-80
2021/12/14 03:20:30;;;;;;;26.30;21.02;;;;;;;;;;5112337;28;20047;-79
2021/12/14 03:23:01;;;;;;;27.33;20.30;;;;;;;;;;5112126;28;20040;-81
2021/12/14 03:25:27;;;;;;;27.05;21.17;;;;;;;;;;5112564;28;20057;-79
2021/12/14 03:27:54;;;;;;;29.27;20.70;;;;;;;;;;5094622;28;20083;-80
2021/12/14 03:30:30;;;;;;;27.55;20.77;;;;;;;;;;5112558;28;20040;-79
2021/12/14 03:33:04;;;;;;;28.10;19.92;;;;;;;;;;5115667;28;20047;-80
2021/12/14 03:35:42;;;;;;;28.95;21.65;;;;;;;;;;5115836;28;20039;-80
2021/12/14 03:38:11;;;;;;;27.55;21.13;;;;;;;;;;5116034;28;20476;-80
2021/12/14 03:40:37;;;;;;;28.38;21.73;;;;;;;;;;5115991;28;20054;-80
2021/12/14 03:43:04;;;;;;;30.50;23.17;;;;;;;;;;5064450;28;20050;-79
2021/12/14 03:45:30;;;;;;;29.98;22.77;;;;;;;;;;5097363;28;20085;-80
2021/12/14 03:47:57;;;;;;;31.55;22.13;;;;;;;;;;5115600;28;20050;-80
2021/12/14 03:50:27;;;;;;;28.98;20.65;;;;;;;;;;5097675;28;20066;-80
2021/12/14 03:52:53;;;;;;;33.63;24.02;;;;;;;;;;5080912;28;20086;-80
2021/12/14 03:55:22;;;;;;;30.48;22.98;;;;;;;;;;5115592;28;20079;-80
2021/12/14 03:57:48;;;;;;;33.58;23.52;;;;;;;;;;5115352;28;20079;-80
2021/12/14 04:00:18;;;;;;;35.28;23.58;;;;;;;;;;5115467;28;20043;-79
2021/12/14 04:02:44;;;;;;;31.55;23.20;;;;;;;;;;5080606;28;20116;-82
2021/12/14 04:05:12;;;;;;;37.08;26.58;;;;;;;;;;5096962;28;20048;-79
2021/12/14 04:07:41;;;;;;;42.50;27.20;;;;;;;;;;5096282;28;20050;-79
2021/12/14 04:10:15;;;;;;;37.47;27.00;;;;;;;;;;5115349;28;20047;-79
2021/12/14 04:12:42;;;;;;;37.85;26.08;;;;;;;;;;5097078;28;20053;-80
2021/12/14 04:15:09;;;;;;;40.33;28.17;;;;;;;;;;5114946;28;20043;-80
2021/12/14 04:17:35;;;;;;;39.42;27.23;;;;;;;;;;5115364;28;20377;-79
2021/12/14 04:20:01;;;;;;;41.22;27.75;;;;;;;;;;5097010;28;20051;-78
2021/12/14 04:22:30;;;;;;;42.30;29.17;;;;;;;;;;5115133;28;20050;-80
2021/12/14 04:25:03;;;;;;;45.47;31.17;;;;;;;;;;5096895;28;20055;-80
2021/12/14 04:27:30;;;;;;;45.47;29.83;;;;;;;;;;5114971;28;20043;-80
2021/12/14 04:29:57;;;;;;;44.10;30.52;;;;;;;;;;5114871;28;20043;-78
2021/12/14 04:32:23;;;;;;;46.70;31.65;;;;;;;;;;5115015;28;20050;-80
2021/12/14 04:34:52;;;;;;;49.25;32.53;;;;;;;;;;5114951;28;20048;-80
2021/12/14 04:37:19;;;;;;;46.78;32.38;;;;;;;;;;5114709;28;20044;-80
2021/12/14 04:39:52;;;;;;;48.38;31.70;;;;;;;;;;5114778;28;20070;-81
2021/12/14 04:53:30;;;;;;;42.72;29.23;;;;;;;;;;5114373;28;20502;-80
2021/12/14 04:55:57;;;;;;;39.42;28.48;;;;;;;;;;5114494;28;20036;-80
2021/12/14 04:58:32;;;;;;;41.72;29.40;;;;;;;;;;5096537;28;20051;-80
2021/12/14 05:00:58;;;;;;;42.92;29.30;;;;;;;;;;5114235;28;20047;-80
2021/12/14 05:03:31;;;;;;;42.95;29.60;;;;;;;;;;5114505;28;20472;-80
2021/12/14 05:06:17;;;;;;;44.10;30.33;;;;;;;;;;5095689;28;20051;-80
2021/12/14 05:11:14;;;;;;;45.58;30.25;;;;;;;;;;5096075;28;20047;-80
2021/12/14 05:13:43;;;;;;;46.70;30.02;;;;;;;;;;5095611;28;20050;-79
2021/12/14 05:16:15;;;;;;;41.30;30.38;;;;;;;;;;5113997;28;20043;-80
2021/12/14 05:18:46;;;;;;;43.22;30.15;;;;;;;;;;5114141;28;20452;-80
2021/12/14 05:21:12;;;;;;;44.25;31.17;;;;;;;;;;5113989;28;20396;-80
2021/12/14 05:23:38;;;;;;;45.63;31.27;;;;;;;;;;5113879;28;20084;-79
2021/12/14 05:26:06;;;;;;;43.97;30.95;;;;;;;;;;5113693;28;20464;-80
2021/12/14 05:28:33;;;;;;;44.55;31.13;;;;;;;;;;5095816;28;20039;-79
2021/12/14 05:30:59;;;;;;;42.38;31.63;;;;;;;;;;5113970;28;20043;-80
2021/12/14 05:33:27;;;;;;;41.35;29.75;;;;;;;;;;5113561;28;20385;-80
2021/12/14 05:35:55;;;;;;;43.42;30.52;;;;;;;;;;5113589;28;20063;-80
2021/12/14 05:38:39;;;;;;;45.53;33.50;;;;;;;;;;5113513;28;20050;-80
2021/12/14 05:43:05;;;;;;;45.05;30.23;;;;;;;;;;5113812;28;20046;-81
2021/12/14 05:43:54;;;;;;;44.55;31.30;;;;;;;;;;5098750;28;20043;-79
2021/12/14 05:46:21;;;;;;;41.17;30.10;;;;;;;;;;5078080;28;20039;-79
2021/12/14 05:48:47;;;;;;;45.05;31.80;;;;;;;;;;5095181;28;20385;-80
2021/12/14 05:51:13;;;;;;;40.92;31.10;;;;;;;;;;5113543;28;20036;-80
2021/12/14 05:53:41;;;;;;;39.15;29.98;;;;;;;;;;5113067;28;20040;-79
2021/12/14 05:56:10;;;;;;;42.47;30.98;;;;;;;;;;5113289;28;20073;-80
2021/12/14 05:58:36;;;;;;;47.40;33.05;;;;;;;;;;5095029;28;20047;-79
2021/12/14 06:01:07;;;;;;;45.03;32.50;;;;;;;;;;5113111;28;20096;-80
2021/12/14 06:03:41;;;;;;;48.63;33.78;;;;;;;;;;5112991;28;20044;-79
2021/12/14 06:06:14;;;;;;;46.65;32.85;;;;;;;;;;5095058;28;20126;-80
2021/12/14 06:08:40;;;;;;;44.95;31.98;;;;;;;;;;5095360;28;20126;-80
2021/12/14 06:11:06;;;;;;;49.47;35.03;;;;;;;;;;5113146;28;20396;-80
2021/12/14 06:13:37;;;;;;;51.05;33.53;;;;;;;;;;5112847;28;20094;-80
2021/12/14 06:16:03;;;;;;;49.63;33.92;;;;;;;;;;5113355;28;20050;-80
2021/12/14 06:18:29;;;;;;;48.42;33.38;;;;;;;;;;5094930;28;20488;-80
2021/12/14 06:20:55;;;;;;;51.33;34.33;;;;;;;;;;5113138;28;20043;-80
2021/12/14 06:23:26;;;;;;;51.50;34.50;;;;;;;;;;5094578;28;20366;-80
2021/12/14 06:25:52;;;;;;;51.58;33.85;;;;;;;;;;5094479;28;20096;-81
2021/12/14 06:28:26;;;;;;;53.50;34.85;;;;;;;;;;5094763;28;20075;-79
2021/12/14 06:30:53;;;;;;;53.10;36.25;;;;;;;;;;5113075;28;20031;-79
2021/12/14 06:33:20;;;;;;;51.70;34.88;;;;;;;;;;5113053;28;20074;-80
2021/12/14 06:35:48;;;;;;;56.30;37.47;;;;;;;;;;5094988;28;20043;-80
2021/12/14 06:38:28;;;;;;;54.00;36.67;;;;;;;;;;5112869;28;20093;-81
2021/12/14 06:40:54;;;;;;;53.95;36.63;;;;;;;;;;5112685;28;20044;-82
2021/12/14 06:43:28;;;;;;;54.85;36.40;;;;;;;;;;5112659;28;20051;-80
2021/12/14 06:45:56;;;;;;;61.67;38.92;;;;;;;;;;5112921;28;20082;-80
2021/12/14 06:48:30;;;;;;;56.38;38.20;;;;;;;;;;5077742;28;20045;-80
2021/12/14 06:50:59;;;;;;;59.20;40.70;;;;;;;;;;5112783;28;20046;-82
2021/12/14 06:53:25;;;;;;;63.25;39.88;;;;;;;;;;5077621;28;20079;-80
2021/12/14 06:55:53;;;;;;;63.45;40.20;;;;;;;;;;5112723;28;20118;-81
2021/12/14 06:58:20;;;;;;;63.88;39.78;;;;;;;;;;5112631;28;20388;-80
2021/12/14 07:01:01;;;;;;;65.30;40.50;;;;;;;;;;5112872;28;20050;-80
2021/12/14 07:03:41;;;;;;;68.15;42.13;;;;;;;;;;5094467;28;20434;-79
2021/12/14 07:06:07;;;;;;;64.90;40.58;;;;;;;;;;5114577;28;20047;-80
2021/12/14 07:08:33;;;;;;;63.85;42.67;;;;;;;;;;5116681;28;20054;-79
2021/12/14 07:10:59;;;;;;;66.05;43.60;;;;;;;;;;5116594;28;20431;-81
2021/12/14 07:13:33;;;;;;;64.10;41.08;;;;;;;;;;5116321;28;20058;-82
2021/12/14 07:16:00;;;;;;;66.85;42.00;;;;;;;;;;5116407;28;20456;-80
2021/12/14 07:18:28;;;;;;;62.67;40.08;;;;;;;;;;5116152;28;20385;-80
2021/12/14 07:20:54;;;;;;;63.58;40.38;;;;;;;;;;5116529;28;20059;-79
2021/12/14 07:23:28;;;;;;;60.55;40.65;;;;;;;;;;5116335;28;20043;-80
2021/12/14 07:25:57;;;;;;;62.95;42.15;;;;;;;;;;5116173;28;20047;-79
2021/12/14 07:28:23;;;;;;;62.15;41.67;;;;;;;;;;5116078;28;20047;-79
2021/12/14 07:30:54;;;;;;;60.10;40.25;;;;;;;;;;5116068;28;20068;-80
2021/12/14 07:33:24;;;;;;;66.60;41.80;;;;;;;;;;5116025;28;20476;-79
2021/12/14 07:35:56;;;;;;;69.28;42.00;;;;;;;;;;5116094;28;20062;-80
2021/12/14 07:38:22;;;;;;;71.55;44.05;;;;;;;;;;5098126;28;20043;-79
2021/12/14 07:40:51;;;;;;;69.72;43.35;;;;;;;;;;5115947;28;20092;-79
2021/12/14 07:43:18;;;;;;;65.75;42.15;;;;;;;;;;5080684;28;20130;-79
2021/12/14 07:45:45;;;;;;;66.00;43.00;;;;;;;;;;5097564;28;20047;-81
2021/12/14 07:48:12;;;;;;;71.82;44.30;;;;;;;;;;5115917;28;20063;-80
2021/12/14 07:50:56;;;;;;;79.35;44.85;;;;;;;;;;5115337;28;20481;-80
2021/12/14 07:53:37;;;;;;;72.43;44.47;;;;;;;;;;5114533;28;20039;-80
2021/12/14 07:56:04;;;;;;;75.60;45.75;;;;;;;;;;5096519;28;20050;-79
2021/12/14 07:58:32;;;;;;;69.18;44.00;;;;;;;;;;5115492;28;20088;-80
2021/12/14 08:00:58;;;;;;;65.63;41.47;;;;;;;;;;5115449;28;20039;-80
2021/12/14 08:03:28;;;;;;;68.32;43.33;;;;;;;;;;5115179;28;20064;-80
2021/12/14 08:05:55;;;;;;;68.35;44.67;;;;;;;;;;5115141;28;20054;-79
2021/12/14 08:13:54;;;;;;;74.68;46.22;;;;;;;;;;5114788;28;20052;-80
2021/12/14 08:16:20;;;;;;;73.15;44.85;;;;;;;;;;5114765;28;20070;-81
2021/12/14 08:18:47;;;;;;;74.85;45.75;;;;;;;;;;5114385;28;20040;-81
2021/12/14 08:21:23;;;;;;;73.20;46.33;;;;;;;;;;5097213;28;20036;-80
2021/12/14 08:24:01;;;;;;;67.47;43.58;;;;;;;;;;5115198;28;20387;-80
2021/12/14 08:26:36;;;;;;;71.53;44.45;;;;;;;;;;5114805;28;20051;-80
2021/12/14 08:29:12;;;;;;;66.75;43.40;;;;;;;;;;5114815;28;20043;-81
2021/12/14 08:31:40;;;;;;;82.85;47.25;;;;;;;;;;5114603;28;20081;-80
2021/12/14 08:34:08;;;;;;;71.13;43.67;;;;;;;;;;5114982;28;20046;-81
2021/12/14 08:36:53;;;;;;;83.45;47.83;;;;;;;;;;5096626;28;20039;-80
2021/12/14 08:39:27;;;;;;;83.28;47.22;;;;;;;;;;5114797;28;20079;-80
2021/12/14 08:42:07;;;;;;;87.00;48.55;;;;;;;;;;5114510;28;20044;-81
2021/12/14 08:44:38;;;;;;;87.85;48.47;;;;;;;;;;5114598;28;20085;-80
2021/12/14 08:47:04;;;;;;;80.03;47.42;;;;;;;;;;5114617;28;20118;-80
2021/12/14 08:49:31;;;;;;;81.38;47.58;;;;;;;;;;5114676;28;20040;-80
2021/12/14 08:51:57;;;;;;;87.10;48.53;;;;;;;;;;5114394;28;20126;-80
2021/12/14 08:54:26;;;;;;;81.75;48.00;;;;;;;;;;5112683;28;20043;-81
2021/12/14 08:56:55;;;;;;;83.78;47.67;;;;;;;;;;5094788;28;20089;-82
2021/12/14 08:59:21;;;;;;;84.45;48.15;;;;;;;;;;5095131;28;20054;-82
2021/12/14 09:01:48;;;;;;;80.60;48.67;;;;;;;;;;5113281;28;20104;-81
2021/12/14 09:04:17;;;;;;;73.78;46.30;;;;;;;;;;5078236;28;20484;-80
2021/12/14 09:06:45;;;;;;;73.95;46.85;;;;;;;;;;5094801;28;20047;-80
2021/12/14 09:09:13;;;;;;;71.60;45.42;;;;;;;;;;5113247;28;20044;-80
2021/12/14 09:11:41;;;;;;;79.70;49.38;;;;;;;;;;5077936;28;20043;-80
2021/12/14 09:14:10;;;;;;;77.20;47.35;;;;;;;;;;5112653;28;20066;-79
2021/12/14 09:16:37;;;;;;;75.55;46.22;;;;;;;;;;5094691;28;20051;-81
2021/12/14 09:19:07;;;;;;;73.47;46.45;;;;;;;;;;5094608;28;20286;-80
2021/12/14 09:21:35;;;;;;;74.18;45.55;;;;;;;;;;5112693;28;20128;-80
2021/12/14 09:24:05;;;;;;;75.13;46.95;;;;;;;;;;5094521;28;20491;-81
2021/12/14 09:26:34;;;;;;;71.43;45.97;;;;;;;;;;5112819;28;20481;-80
2021/12/14 09:29:01;;;;;;;68.68;44.10;;;;;;;;;;5112569;28;20409;-80
2021/12/14 09:31:31;;;;;;;72.25;46.05;;;;;;;;;;5094436;28;20044;-80
2021/12/14 09:33:59;;;;;;;70.90;47.13;;;;;;;;;;5094218;28;20048;-81
2021/12/14 09:36:25;;;;;;;67.30;42.88;;;;;;;;;;5094273;28;20055;-81
2021/12/14 09:38:55;;;;;;;69.30;44.83;;;;;;;;;;5094468;28;20039;-81
2021/12/14 09:41:23;;;;;;;70.10;44.40;;;;;;;;;;5112501;28;20074;-80
2021/12/14 09:43:49;;;;;;;68.15;44.47;;;;;;;;;;5094423;28;20075;-80
2021/12/14 09:46:17;;;;;;;70.18;45.10;;;;;;;;;;5093800;28;20395;-80
2021/12/14 09:48:45;;;;;;;70.28;46.03;;;;;;;;;;5112171;28;20108;-79
2021/12/14 09:51:17;;;;;;;67.93;44.58;;;;;;;;;;5094173;28;20047;-80
2021/12/14 09:53:46;;;;;;;72.60;46.03;;;;;;;;;;5112276;28;20521;-81
2021/12/14 09:56:13;;;;;;;68.53;45.33;;;;;;;;;;5094145;28;20043;-81
2021/12/14 09:58:42;;;;;;;67.07;44.00;;;;;;;;;;5094220;28;20043;-80
2021/12/14 10:01:11;;;;;;;68.72;45.38;;;;;;;;;;5112192;28;20047;-81
2021/12/14 10:03:38;;;;;;;65.63;43.35;;;;;;;;;;5093789;28;20055;-80
2021/12/14 10:06:07;;;;;;;65.15;42.80;;;;;;;;;;5112008;28;20035;-80
2021/12/14 10:08:36;;;;;;;69.03;45.80;;;;;;;;;;5111882;28;20086;-80
2021/12/14 10:11:05;;;;;;;66.80;45.20;;;;;;;;;;5094106;28;20109;-82
2021/12/14 10:13:33;;;;;;;63.08;43.88;;;;;;;;;;5093451;28;20401;-80
2021/12/14 10:16:00;;;;;;;71.53;44.28;;;;;;;;;;5094264;28;20055;-80
2021/12/14 10:18:29;;;;;;;67.50;45.05;;;;;;;;;;5093864;28;20050;-74
2021/12/14 10:20:57;;;;;;;64.65;44.95;;;;;;;;;;5112591;28;20132;-79
2021/12/14 10:23:24;;;;;;;63.28;43.22;;;;;;;;;;5111927;28;20040;-74
2021/12/14 10:25:52;;;;;;;68.43;46.70;;;;;;;;;;5111664;28;20051;-75
2021/12/14 10:28:18;;;;;;;68.47;44.83;;;;;;;;;;5093654;28;20047;-81
2021/12/14 10:30:46;;;;;;;67.00;44.30;;;;;;;;;;5111854;28;20445;-80
2021/12/14 10:33:13;;;;;;;69.25;45.78;;;;;;;;;;5093773;28;20044;-81
2021/12/14 10:35:46;;;;;;;72.70;45.08;;;;;;;;;;5111892;28;20130;-81
2021/12/14 10:38:20;;;;;;;72.43;44.25;;;;;;;;;;5111850;28;20043;-81
2021/12/14 10:43:35;;;;;;;69.80;44.15;;;;;;;;;;5115861;28;20055;-80
2021/12/14 10:46:04;;;;;;;69.13;45.25;;;;;;;;;;5115675;28;20381;-81
2021/12/14 10:48:32;;;;;;;70.75;46.00;;;;;;;;;;5080596;28;20078;-81
2021/12/14 10:51:00;;;;;;;66.10;44.13;;;;;;;;;;5115780;28;20043;-81
2021/12/14 10:53:27;;;;;;;68.22;44.90;;;;;;;;;;5115659;28;20039;-81
2021/12/14 10:55:56;;;;;;;68.40;44.42;;;;;;;;;;5115513;28;20043;-81
2021/12/14 10:58:24;;;;;;;67.30;45.88;;;;;;;;;;5097488;28;20043;-80
2021/12/14 11:00:55;;;;;;;68.38;45.08;;;;;;;;;;5097115;28;20066;-80
2021/12/14 11:03:24;;;;;;;69.95;44.70;;;;;;;;;;5115441;28;20035;-81
2021/12/14 11:05:53;;;;;;;70.57;44.95;;;;;;;;;;5115091;28;20044;-80
2021/12/14 11:08:42;;;;;;;67.50;44.65;;;;;;;;;;5080287;28;20048;-81
2021/12/14 11:11:12;;;;;;;62.47;41.88;;;;;;;;;;5115347;28;20408;-81
2021/12/14 11:13:47;;;;;;;65.05;43.95;;;;;;;;;;5096790;28;20047;-81
2021/12/14 11:16:21;;;;;;;63.80;43.10;;;;;;;;;;5115317;28;20083;-82
2021/12/14 11:18:48;;;;;;;68.97;44.28;;;;;;;;;;5115031;28;20051;-80
2021/12/14 11:21:18;;;;;;;71.85;44.65;;;;;;;;;;5115286;28;20097;-81
2021/12/14 11:23:46;;;;;;;69.45;43.55;;;;;;;;;;5115061;28;20500;-80
2021/12/14 11:26:21;;;;;;;76.68;47.47;;;;;;;;;;5079875;28;20094;-81
2021/12/14 11:28:53;;;;;;;79.05;47.22;;;;;;;;;;5114636;28;20484;-81
2021/12/14 11:31:20;;;;;;;77.18;45.47;;;;;;;;;;5114986;28;20104;-81
2021/12/14 11:33:52;;;;;;;77.88;46.25;;;;;;;;;;5115072;28;20519;-81
2021/12/14 11:36:28;;;;;;;75.28;44.17;;;;;;;;;;5097149;28;20605;-81
2021/12/14 11:38:57;;;;;;;75.38;44.33;;;;;;;;;;5114876;28;20122;-81
2021/12/14 11:41:23;;;;;;;78.85;44.78;;;;;;;;;;5096755;28;20109;-81
2021/12/14 11:44:12;;;;;;;80.40;45.10;;;;;;;;;;5096719;28;20055;-81
2021/12/14 11:46:47;;;;;;;77.85;44.20;;;;;;;;;;5050461;28;20456;-81
2021/12/14 11:49:13;;;;;;;70.60;42.58;;;;;;;;;;5114343;28;20047;-81
2021/12/14 11:51:41;;;;;;;79.72;45.00;;;;;;;;;;5095434;28;20126;-82
2021/12/14 11:54:08;;;;;;;81.28;44.55;;;;;;;;;;5115110;28;20043;-82
2021/12/14 11:56:34;;;;;;;78.05;42.78;;;;;;;;;;5115656;28;20127;-81
2021/12/14 11:59:03;;;;;;;74.78;42.42;;;;;;;;;;5115638;28;20404;-81
2021/12/14 12:01:29;;;;;;;70.28;42.13;;;;;;;;;;5115519;28;20118;-81
2021/12/14 12:03:59;;;;;;;65.50;41.58;;;;;;;;;;5115310;28;20080;-81
2021/12/14 12:12:08;;;;;;;70.70;39.67;;;;;;;;;;5114026;28;20392;-81
2021/12/14 12:14:53;;;;;;;68.70;40.25;;;;;;;;;;5113651;28;20182;-81
2021/12/14 12:17:37;;;;;;;73.20;41.47;;;;;;;;;;5096400;28;20130;-82
2021/12/14 12:20:22;;;;;;;68.78;41.13;;;;;;;;;;5114529;28;20408;-81
2021/12/14 12:22:51;;;;;;;67.57;38.85;;;;;;;;;;5114405;28;20039;-81
2021/12/14 12:25:19;;;;;;;64.53;38.00;;;;;;;;;;5114463;28;20083;-81
2021/12/14 12:27:47;;;;;;;58.83;36.38;;;;;;;;;;5114427;28;20107;-80
2021/12/14 12:30:28;;;;;;;60.65;37.78;;;;;;;;;;5096395;28;20071;-80
2021/12/14 12:32:54;;;;;;;57.35;36.00;;;;;;;;;;5096578;28;20040;-82
2021/12/14 12:35:22;;;;;;;66.22;36.90;;;;;;;;;;5114789;28;20035;-81
2021/12/14 12:37:48;;;;;;;56.88;35.33;;;;;;;;;;5096695;28;20047;-82
2021/12/14 12:40:17;;;;;;;55.10;35.38;;;;;;;;;;5079854;28;20040;-81
2021/12/14 12:42:43;;;;;;;55.97;35.25;;;;;;;;;;5114640;28;20483;-81
2021/12/14 12:45:27;;;;;;;59.53;36.85;;;;;;;;;;5096448;28;20131;-81
2021/12/14 12:47:53;;;;;;;56.88;34.60;;;;;;;;;;5096485;28;20112;-81
2021/12/14 12:50:27;;;;;;;55.05;33.17;;;;;;;;;;5114684;28;20044;-81
2021/12/14 12:52:53;;;;;;;54.63;33.55;;;;;;;;;;5096593;28;20060;-81
2021/12/14 12:55:28;;;;;;;51.50;31.30;;;;;;;;;;5096174;28;20035;-81
2021/12/14 12:58:12;;;;;;;59.55;32.47;;;;;;;;;;5114308;28;20035;-81
2021/12/14 13:00:47;;;;;;;53.15;31.67;;;;;;;;;;5114416;28;20086;-80
2021/12/14 13:03:13;;;;;;;42.65;28.17;;;;;;;;;;5113911;28;20093;-81
2021/12/14 13:05:53;;;;;;;48.60;28.10;;;;;;;;;;5114165;28;20043;-81
2021/12/14 13:08:19;;;;;;;43.08;27.85;;;;;;;;;;5096055;28;20062;-81
2021/12/14 13:10:45;;;;;;;42.83;27.02;;;;;;;;;;5114330;28;20082;-82
2021/12/14 13:13:43;;;;;;;47.30;28.00;;;;;;;;;;5095857;28;20117;-80
2021/12/14 13:16:10;;;;;;;40.58;25.85;;;;;;;;;;5058243;28;20492;-81
2021/12/14 13:18:37;;;;;;;40.90;25.83;;;;;;;;;;5113931;28;20427;-81
2021/12/14 13:21:06;;;;;;;45.10;26.88;;;;;;;;;;5113731;28;20047;-81
2021/12/14 13:23:41;;;;;;;41.78;25.33;;;;;;;;;;5113931;28;20048;-81
2021/12/14 13:26:20;;;;;;;38.33;25.70;;;;;;;;;;5113798;28;20044;-81
2021/12/14 13:28:46;;;;;;;39.78;25.70;;;;;;;;;;5113854;28;20044;-81
2021/12/14 13:31:23;;;;;;;37.45;24.92;;;;;;;;;;5113831;28;20126;-80
2021/12/14 13:33:49;;;;;;;40.63;25.05;;;;;;;;;;5113980;28;20475;-81
2021/12/14 13:36:15;;;;;;;40.85;25.48;;;;;;;;;;5113777;28;20066;-82
2021/12/14 13:38:41;;;;;;;45.42;26.00;;;;;;;;;;5095663;28;20122;-81
2021/12/14 13:41:17;;;;;;;39.30;24.95;;;;;;;;;;5113530;28;20137;-81
2021/12/14 13:43:43;;;;;;;49.45;28.98;;;;;;;;;;5113353;28;20079;-81
2021/12/14 13:46:09;;;;;;;43.83;25.73;;;;;;;;;;5095166;28;20126;-81
2021/12/14 13:48:37;;;;;;;48.17;27.60;;;;;;;;;;5113685;28;20082;-81
2021/12/14 13:51:06;;;;;;;51.22;28.20;;;;;;;;;;5113475;28;20035;-81
2021/12/14 13:53:33;;;;;;;48.05;27.65;;;;;;;;;;5095295;28;20101;-82
2021/12/14 13:56:00;;;;;;;49.70;27.42;;;;;;;;;;5113247;28;20385;-80
2021/12/14 13:58:28;;;;;;;55.58;30.17;;;;;;;;;;5113064;28;20083;-81
2021/12/14 14:00:59;;;;;;;53.90;28.73;;;;;;;;;;5113380;28;20082;-82
2021/12/14 14:03:28;;;;;;;50.10;27.60;;;;;;;;;;5078668;28;20127;-82
2021/12/14 14:05:55;;;;;;;54.97;29.98;;;;;;;;;;5094893;28;20168;-82
2021/12/14 14:08:25;;;;;;;60.72;31.08;;;;;;;;;;5113199;28;20049;-81
2021/12/14 14:10:53;;;;;;;55.20;28.63;;;;;;;;;;5095142;28;20036;-82
2021/12/14 14:13:25;;;;;;;56.13;29.63;;;;;;;;;;5091489;28;20055;-81
2021/12/14 14:15:52;;;;;;;56.55;30.20;;;;;;;;;;5091038;28;20127;-81
2021/12/14 14:18:18;;;;;;;53.58;29.02;;;;;;;;;;5091736;28;20074;-81
2021/12/14 14:20:49;;;;;;;51.38;28.10;;;;;;;;;;5092844;28;20079;-81
2021/12/14 14:23:15;;;;;;;51.80;29.02;;;;;;;;;;5092721;28;20097;-82
2021/12/14 14:25:44;;;;;;;56.30;29.77;;;;;;;;;;5092653;28;20051;-81
2021/12/14 14:28:23;;;;;;;55.60;30.10;;;;;;;;;;5091850;28;20047;-81
2021/12/14 14:30:51;;;;;;;59.22;30.45;;;;;;;;;;5091832;28;20043;-80
2021/12/14 14:33:21;;;;;;;54.55;29.92;;;;;;;;;;5091461;28;20434;-81
2021/12/14 14:35:55;;;;;;;47.78;27.38;;;;;;;;;;5091328;28;20505;-81
2021/12/14 14:38:29;;;;;;;50.58;29.58;;;;;;;;;;5092732;28;20048;-81
2021/12/14 14:40:56;;;;;;;51.83;28.95;;;;;;;;;;5092682;28;20044;-81
2021/12/14 14:43:23;;;;;;;55.08;30.15;;;;;;;;;;5092620;28;20079;-81
2021/12/14 14:45:49;;;;;;;55.22;29.73;;;;;;;;;;5091329;28;20051;-82
2021/12/14 14:48:21;;;;;;;50.75;28.95;;;;;;;;;;5092523;28;20063;-81
2021/12/14 14:50:48;;;;;;;48.42;28.40;;;;;;;;;;5091256;28;20059;-81
2021/12/14 14:53:16;;;;;;;54.90;29.88;;;;;;;;;;5074801;28;20056;-81
2021/12/14 14:55:50;;;;;;;49.63;28.20;;;;;;;;;;5091527;28;20044;-80
2021/12/14 14:58:18;;;;;;;44.80;27.77;;;;;;;;;;5092664;28;20040;-81
2021/12/14 15:00:50;;;;;;;49.67;27.77;;;;;;;;;;5074559;28;20051;-81
2021/12/14 15:03:22;;;;;;;51.40;28.15;;;;;;;;;;5092327;28;20091;-81
2021/12/14 15:05:52;;;;;;;46.15;26.45;;;;;;;;;;5091438;28;20560;-81
2021/12/14 15:08:21;;;;;;;50.45;27.38;;;;;;;;;;5092472;28;20088;-82
2021/12/14 15:10:50;;;;;;;48.65;27.75;;;;;;;;;;5092075;28;20036;-81
2021/12/14 15:13:32;;;;;;;46.53;26.50;;;;;;;;;;5090815;28;20052;-82
2021/12/14 15:16:01;;;;;;;50.17;27.77;;;;;;;;;;5092398;28;20561;-82
2021/12/14 15:18:47;;;;;;;49.67;27.77;;;;;;;;;;5092004;28;20126;-82